createdAt,value
2023-05-25T00:02:07.237Z,101316.72
2023-05-25T00:04:37.162Z,101318.72
2023-05-25T00:07:06.610Z,101318.06
2023-05-25T00:09:36.067Z,101325.28
2023-05-25T00:12:06.065Z,101327.16
2023-05-25T00:14:34.904Z,101326.53
2023-05-25T00:17:10.047Z,101334.75
2023-05-25T00:19:42.524Z,101334.09
2023-05-25T00:22:12.259Z,101325.41
2023-05-25T00:24:41.380Z,101328.09
2023-05-25T00:27:12.903Z,101328.09
2023-05-25T00:29:41.804Z,101331.94
2023-05-25T00:32:12.310Z,101329.41
2023-05-25T00:34:41.716Z,101332.19
2023-05-25T00:37:10.915Z,101322.44
2023-05-25T00:39:39.737Z,101326.81
2023-05-25T00:42:09.750Z,101325.97
2023-05-25T00:44:38.552Z,101331.66
2023-05-25T00:47:07.779Z,101332.63
2023-05-25T00:49:38.398Z,101336.25
2023-05-25T00:52:07.858Z,101342.59
2023-05-25T00:54:37.741Z,101345.06
2023-05-25T00:57:09.014Z,101343.41
2023-05-25T00:59:41.482Z,101347.03
2023-05-25T01:02:12.010Z,101345.78
2023-05-25T01:04:45.305Z,101337.72
2023-05-25T01:07:18.456Z,101335.31
2023-05-25T01:09:47.919Z,101341.28
2023-05-25T01:12:17.374Z,101337.72
2023-05-25T01:14:48.282Z,101340.28
2023-05-25T01:17:20.540Z,101342.97
2023-05-25T01:20:09.052Z,101339.44
2023-05-25T01:22:44.549Z,101341.50
2023-05-25T01:25:14.806Z,101345.34
2023-05-25T01:27:58.550Z,101343.19
2023-05-25T01:30:28.333Z,101340.53
2023-05-25T01:32:58.278Z,101346.97
2023-05-25T01:35:28.582Z,101347.19
2023-05-25T01:37:59.586Z,101340.22
2023-05-25T01:40:29.191Z,101346.59
2023-05-25T01:42:59.578Z,101341.50
2023-05-25T01:45:29.177Z,101344.41
2023-05-25T01:48:02.733Z,101343.41
2023-05-25T01:50:35.367Z,101344.56
2023-05-25T01:53:05.839Z,101340.94
2023-05-25T01:55:38.728Z,101349.13
2023-05-25T01:58:09.591Z,101345.56
2023-05-25T02:00:41.053Z,101350.22
2023-05-25T02:03:10.933Z,101354.50
2023-05-25T02:05:42.935Z,101347.53
2023-05-25T02:08:12.666Z,101352.00
2023-05-25T02:10:41.818Z,101349.56
2023-05-25T02:13:12.131Z,101347.91
2023-05-25T02:15:41.752Z,101357.03
2023-05-25T02:18:11.147Z,101356.22
2023-05-25T02:20:40.545Z,101351.00
2023-05-25T02:23:09.405Z,101355.38
2023-05-25T02:25:42.761Z,101348.13
2023-05-25T02:28:13.547Z,101347.31
2023-05-25T02:31:22.998Z,101347.72
2023-05-25T02:33:51.835Z,101341.63
2023-05-25T02:36:21.778Z,101340.91
2023-05-25T02:38:52.185Z,101348.00
2023-05-25T02:41:21.997Z,101348.66
2023-05-25T02:43:52.241Z,101352.75
2023-05-25T02:46:23.016Z,101344.91
2023-05-25T02:48:52.071Z,101351.19
2023-05-25T02:51:21.239Z,101352.75
2023-05-25T02:53:50.819Z,101355.44
2023-05-25T02:56:19.914Z,101358.34
2023-05-25T02:58:48.875Z,101358.22
2023-05-25T03:01:25.854Z,101355.53
2023-05-25T03:03:56.959Z,101352.88
2023-05-25T03:06:28.525Z,101359.16
2023-05-25T03:09:06.477Z,101348.38
2023-05-25T03:11:36.085Z,101351.16
2023-05-25T03:14:06.561Z,101347.66
2023-05-25T03:16:39.242Z,101339.50
2023-05-25T03:19:10.634Z,101346.69
2023-05-25T03:21:40.080Z,101355.53
2023-05-25T03:24:09.269Z,101343.72
2023-05-25T03:26:38.456Z,101348.25
2023-05-25T03:29:08.665Z,101357.13
2023-05-25T03:31:39.424Z,101342.19
2023-05-25T03:34:08.495Z,101348.25
2023-05-25T03:36:39.637Z,101352.59
2023-05-25T03:39:10.277Z,101353.47
2023-05-25T03:41:39.859Z,101352.44
2023-05-25T03:44:10.875Z,101362.34
2023-05-25T03:46:41.688Z,101342.72
2023-05-25T03:49:14.174Z,101360.50
2023-05-25T03:51:43.898Z,101355.06
2023-05-25T03:54:14.558Z,101347.84
2023-05-25T03:56:43.831Z,101354.00
2023-05-25T03:59:13.108Z,101357.28
2023-05-25T04:01:44.421Z,101362.28
2023-05-25T04:04:13.546Z,101364.78
2023-05-25T04:06:45.918Z,101373.44
2023-05-25T04:09:15.370Z,101366.25
2023-05-25T04:11:46.003Z,101365.66
2023-05-25T04:14:15.067Z,101372.72
2023-05-25T04:16:46.876Z,101359.84
2023-05-25T04:19:17.530Z,101364.94
2023-05-25T04:21:46.875Z,101363.63
2023-05-25T04:24:15.895Z,101365.22
2023-05-25T04:26:46.356Z,101363.16
2023-05-25T04:29:15.932Z,101367.09
2023-05-25T04:32:06.497Z,101364.88
2023-05-25T04:34:37.943Z,101364.75
2023-05-25T04:37:17.349Z,101373.47
2023-05-25T04:39:47.300Z,101374.91
2023-05-25T04:42:17.120Z,101370.13
2023-05-25T04:44:46.471Z,101370.84
2023-05-25T04:47:17.266Z,101376.09
2023-05-25T04:49:46.334Z,101377.66
2023-05-25T04:52:15.626Z,101383.31
2023-05-25T04:54:46.922Z,101377.78
2023-05-25T04:57:17.807Z,101374.75
2023-05-25T04:59:46.916Z,101393.19
2023-05-25T05:02:17.431Z,101381.03
2023-05-25T05:04:46.417Z,101382.13
2023-05-25T05:07:15.586Z,101386.41
2023-05-25T05:09:45.177Z,101379.59
2023-05-25T05:12:14.822Z,101383.63
2023-05-25T05:14:50.323Z,101391.28
2023-05-25T05:17:21.141Z,101378.44
2023-05-25T05:19:50.120Z,101385.41
2023-05-25T05:22:19.789Z,101383.28
2023-05-25T05:24:49.075Z,101381.13
2023-05-25T05:27:24.437Z,101385.41
2023-05-25T05:30:01.607Z,101382.91
2023-05-25T05:32:33.117Z,101385.16
2023-05-25T05:35:04.999Z,101382.03
2023-05-25T05:37:40.949Z,101380.56
2023-05-25T05:40:10.963Z,101387.44
2023-05-25T05:42:42.449Z,101381.88
2023-05-25T05:45:12.568Z,101380.81
2023-05-25T05:47:43.273Z,101378.41
2023-05-25T05:50:12.781Z,101385.78
2023-05-25T05:52:43.403Z,101388.03
2023-05-25T05:55:13.496Z,101385.00
2023-05-25T05:57:44.196Z,101390.94
2023-05-25T06:00:13.838Z,101396.00
2023-05-25T06:02:47.338Z,101401.03
2023-05-25T06:05:21.973Z,101402.50
2023-05-25T06:07:51.855Z,101398.38
2023-05-25T06:10:22.702Z,101404.13
2023-05-25T06:12:52.199Z,101397.25
2023-05-25T06:15:21.115Z,101408.44
2023-05-25T06:17:53.602Z,101407.66
2023-05-25T06:20:23.092Z,101401.81
2023-05-25T06:22:52.247Z,101404.78
2023-05-25T06:25:21.421Z,101413.56
2023-05-25T06:27:51.035Z,101411.41
2023-05-25T06:30:20.057Z,101407.75
2023-05-25T06:32:49.162Z,101415.38
2023-05-25T06:35:21.020Z,101415.88
2023-05-25T06:37:53.350Z,101413.19
2023-05-25T06:40:22.793Z,101423.25
2023-05-25T06:42:52.746Z,101427.88
2023-05-25T06:45:53.959Z,101435.22
2023-05-25T06:48:29.390Z,101429.19
2023-05-25T06:51:01.156Z,101428.00
2023-05-25T06:53:34.184Z,101431.81
2023-05-25T06:56:06.058Z,101442.06
2023-05-25T06:58:35.551Z,101434.94
2023-05-25T07:01:06.680Z,101437.47
2023-05-25T07:03:36.438Z,101436.09
2023-05-25T07:06:06.896Z,101438.19
2023-05-25T07:08:36.384Z,101428.44
2023-05-25T07:11:05.553Z,101436.72
2023-05-25T07:13:37.008Z,101441.19
2023-05-25T07:16:06.083Z,101436.00
2023-05-25T07:18:35.168Z,101440.16
2023-05-25T07:21:04.059Z,101438.75
2023-05-25T07:23:34.560Z,101441.09
2023-05-25T07:26:05.688Z,101432.50
2023-05-25T07:28:35.390Z,101439.16
2023-05-25T07:31:04.260Z,101445.03
2023-05-25T07:33:33.514Z,101442.94
2023-05-25T07:36:02.364Z,101451.31
2023-05-25T07:38:31.588Z,101452.50
2023-05-25T07:41:01.818Z,101453.63
2023-05-25T07:43:31.676Z,101456.84
2023-05-25T07:46:01.339Z,101460.66
2023-05-25T07:48:30.512Z,101463.38
2023-05-25T07:50:59.465Z,101470.13
2023-05-25T07:53:28.634Z,101469.81
2023-05-25T07:55:57.581Z,101480.44
2023-05-25T07:58:28.245Z,101483.06
2023-05-25T08:00:57.375Z,101485.22
2023-05-25T08:03:39.888Z,101485.81
2023-05-25T08:06:15.518Z,101478.19
2023-05-25T08:08:45.090Z,101483.75
2023-05-25T08:11:14.222Z,101484.50
2023-05-25T08:13:44.783Z,101485.06
2023-05-25T08:16:13.792Z,101487.19
2023-05-25T08:18:46.663Z,101493.19
2023-05-25T08:21:16.692Z,101489.25
2023-05-25T08:23:46.131Z,101498.94
2023-05-25T08:26:31.735Z,101496.09
2023-05-25T08:29:05.993Z,101501.66
2023-05-25T08:31:35.795Z,101499.38
2023-05-25T08:34:05.082Z,101500.88
2023-05-25T08:36:35.952Z,101510.22
2023-05-25T08:39:05.851Z,101505.19
2023-05-25T08:41:36.021Z,101502.91
2023-05-25T08:44:08.850Z,101499.50
2023-05-25T08:46:37.735Z,101509.50
2023-05-25T08:49:10.208Z,101502.97
2023-05-25T08:51:40.026Z,101502.09
2023-05-25T08:54:10.412Z,101502.56
2023-05-25T08:56:43.050Z,101504.28
2023-05-25T08:59:18.721Z,101510.78
2023-05-25T09:01:48.000Z,101515.13
2023-05-25T09:04:19.682Z,101517.28
2023-05-25T09:07:05.695Z,101515.84
2023-05-25T09:09:39.650Z,101528.00
2023-05-25T09:12:09.609Z,101520.56
2023-05-25T09:14:45.674Z,101526.94
2023-05-25T09:17:15.189Z,101526.75
2023-05-25T09:19:44.521Z,101523.97
2023-05-25T09:22:16.935Z,101516.81
2023-05-25T09:24:46.931Z,101515.34
2023-05-25T09:27:18.619Z,101519.47
2023-05-25T09:29:50.489Z,101521.63
2023-05-25T09:32:20.386Z,101525.69
2023-05-25T09:34:49.613Z,101528.44
2023-05-25T09:37:20.215Z,101527.81
2023-05-25T09:39:49.636Z,101529.06
2023-05-25T09:42:21.543Z,101521.97
2023-05-25T09:44:52.168Z,101523.25
2023-05-25T09:47:21.314Z,101517.56
2023-05-25T09:49:50.687Z,101523.38
2023-05-25T09:52:19.834Z,101518.78
2023-05-25T09:54:49.363Z,101515.66
2023-05-25T09:57:19.573Z,101516.16
2023-05-25T09:59:48.857Z,101514.56
2023-05-25T10:02:19.099Z,101513.44
2023-05-25T10:04:48.669Z,101509.09
2023-05-25T10:07:17.878Z,101514.69
2023-05-25T10:09:47.251Z,101512.69
2023-05-25T10:12:18.902Z,101507.00
2023-05-25T10:14:51.332Z,101511.34
2023-05-25T10:17:24.261Z,101507.25
2023-05-25T10:19:56.350Z,101511.63
2023-05-25T10:22:28.771Z,101506.53
2023-05-25T10:25:00.858Z,101509.63
2023-05-25T10:27:32.937Z,101512.94
2023-05-25T10:30:02.974Z,101514.06
2023-05-25T10:32:34.065Z,101511.50
2023-05-25T10:35:04.516Z,101509.41
2023-05-25T10:37:34.510Z,101506.03
2023-05-25T10:40:04.395Z,101502.16
2023-05-25T10:42:37.050Z,101503.25
2023-05-25T10:45:07.367Z,101502.91
2023-05-25T10:47:38.886Z,101509.50
2023-05-25T10:50:08.888Z,101503.44
2023-05-25T10:52:37.703Z,101514.97
2023-05-25T10:55:07.423Z,101503.81
2023-05-25T10:57:36.500Z,101511.25
2023-05-25T11:00:08.724Z,101504.91
2023-05-25T11:02:53.671Z,101502.78
2023-05-25T11:05:34.257Z,101506.13
2023-05-25T11:08:05.091Z,101500.34
2023-05-25T11:10:44.939Z,101500.34
2023-05-25T11:13:25.286Z,101503.53
2023-05-25T11:16:20.175Z,101502.94
2023-05-25T11:18:54.766Z,101506.50
2023-05-25T11:21:25.529Z,101505.00
2023-05-25T11:23:55.259Z,101510.47
2023-05-25T11:26:25.393Z,101513.56
2023-05-25T11:28:54.690Z,101511.81
2023-05-25T11:31:31.950Z,101510.81
2023-05-25T11:34:04.831Z,101508.84
2023-05-25T11:36:35.898Z,101509.72
2023-05-25T11:39:11.728Z,101508.44
2023-05-25T11:41:51.473Z,101516.00
2023-05-25T11:44:27.455Z,101510.81
2023-05-25T11:46:58.229Z,101513.41
2023-05-25T11:49:29.945Z,101518.38
2023-05-25T11:51:59.498Z,101517.50
2023-05-25T11:54:29.568Z,101522.09
2023-05-25T11:57:00.162Z,101519.84
2023-05-25T11:59:32.358Z,101521.47
2023-05-25T12:02:03.308Z,101508.75
2023-05-25T12:04:35.299Z,101521.69
2023-05-25T12:07:05.075Z,101513.47
2023-05-25T12:09:34.320Z,101528.00
2023-05-25T12:12:04.899Z,101530.75
2023-05-25T12:14:36.276Z,101521.81
2023-05-25T12:17:07.465Z,101528.41
2023-05-25T12:19:37.928Z,101523.69
2023-05-25T12:22:07.660Z,101526.94
2023-05-25T12:24:36.578Z,101517.59
2023-05-25T12:27:06.869Z,101528.66
2023-05-25T12:29:46.587Z,101531.53
2023-05-25T12:32:16.222Z,101524.34
2023-05-25T12:34:46.682Z,101522.97
2023-05-25T12:37:20.734Z,101519.84
2023-05-25T12:39:51.515Z,101518.38
2023-05-25T12:42:20.940Z,101525.31
2023-05-25T12:44:55.532Z,101526.84
2023-05-25T12:47:25.451Z,101519.31
2023-05-25T12:50:11.169Z,101521.03
2023-05-25T12:52:41.042Z,101521.31
2023-05-25T12:55:25.788Z,101514.91
2023-05-25T12:57:55.346Z,101516.66
2023-05-25T13:00:25.602Z,101519.28
2023-05-25T13:02:55.095Z,101537.22
2023-05-25T13:05:26.517Z,101534.47
2023-05-25T13:07:56.457Z,101533.34
2023-05-25T13:10:28.285Z,101540.91
2023-05-25T13:12:58.677Z,101522.91
2023-05-25T13:15:28.178Z,101527.72
2023-05-25T13:17:58.741Z,101528.47
2023-05-25T13:20:30.243Z,101523.75
2023-05-25T13:22:59.844Z,101525.25
2023-05-25T13:25:28.762Z,101519.09
2023-05-25T13:28:00.294Z,101518.47
2023-05-25T13:30:29.212Z,101521.81
2023-05-25T13:32:58.363Z,101515.91
2023-05-25T13:35:42.111Z,101523.50
2023-05-25T13:38:11.719Z,101520.56
2023-05-25T13:40:40.744Z,101510.25
2023-05-25T13:43:09.837Z,101517.09
2023-05-25T13:45:39.833Z,101520.66
2023-05-25T13:48:09.061Z,101516.72
2023-05-25T13:50:39.556Z,101519.91
2023-05-25T13:53:08.507Z,101511.59
2023-05-25T13:55:38.690Z,101511.72
2023-05-25T13:58:07.914Z,101510.47
2023-05-25T14:00:37.559Z,101502.34
2023-05-25T14:03:06.555Z,101504.31
2023-05-25T14:05:35.965Z,101498.91
2023-05-25T14:08:06.921Z,101506.34
2023-05-25T14:10:36.363Z,101489.88
2023-05-25T14:13:05.166Z,101499.22
2023-05-25T14:15:34.375Z,101500.56
2023-05-25T14:18:03.199Z,101498.47
2023-05-25T14:20:36.032Z,101499.19
2023-05-25T14:23:06.416Z,101503.69
2023-05-25T14:25:35.552Z,101499.81
2023-05-25T14:28:04.757Z,101489.47
2023-05-25T14:30:35.694Z,101500.19
2023-05-25T14:33:04.663Z,101503.94
2023-05-25T14:35:33.790Z,101504.81
2023-05-25T14:38:02.641Z,101494.56
2023-05-25T14:40:33.191Z,101503.22
2023-05-25T14:43:02.181Z,101499.34
2023-05-25T14:45:31.362Z,101496.53
2023-05-25T14:48:15.276Z,101490.97
2023-05-25T14:50:46.500Z,101480.97
2023-05-25T14:53:16.013Z,101480.94
2023-05-25T14:55:46.678Z,101483.81
2023-05-25T14:58:15.688Z,101491.16
2023-05-25T15:00:44.904Z,101493.88
2023-05-25T15:03:13.951Z,101495.56
2023-05-25T15:05:43.374Z,101488.13
2023-05-25T15:08:12.346Z,101486.53
2023-05-25T15:10:41.432Z,101488.59
2023-05-25T15:13:13.304Z,101490.88
2023-05-25T15:15:43.135Z,101485.69
2023-05-25T15:18:12.465Z,101488.44
2023-05-25T15:20:41.833Z,101490.06
2023-05-25T15:23:10.864Z,101487.78
2023-05-25T15:25:39.992Z,101481.03
2023-05-25T15:28:08.836Z,101492.22
2023-05-25T15:30:39.297Z,101498.41
2023-05-25T15:33:08.247Z,101488.00
2023-05-25T15:35:37.506Z,101491.69
2023-05-25T15:38:06.460Z,101492.34
2023-05-25T15:40:37.103Z,101505.56
2023-05-25T15:43:06.032Z,101499.31
2023-05-25T15:45:35.124Z,101495.72
2023-05-25T15:48:09.234Z,101499.34
2023-05-25T15:50:39.696Z,101505.69
2023-05-25T15:53:08.877Z,101505.38
2023-05-25T15:55:40.004Z,101497.88
2023-05-25T15:58:09.030Z,101494.09
2023-05-25T16:00:38.155Z,101494.38
2023-05-25T16:03:08.666Z,101484.72
2023-05-25T16:05:37.937Z,101489.75
2023-05-25T16:08:06.913Z,101490.47
2023-05-25T16:10:37.880Z,101502.91
2023-05-25T16:13:06.666Z,101488.00
2023-05-25T16:15:35.856Z,101494.72
2023-05-25T16:18:05.373Z,101492.56
2023-05-25T16:20:36.553Z,101492.53
2023-05-25T16:23:05.517Z,101483.41
2023-05-25T16:25:34.643Z,101490.03
2023-05-25T16:28:03.595Z,101495.19
2023-05-25T16:30:32.675Z,101491.84
2023-05-25T16:33:01.972Z,101488.88
2023-05-25T16:35:31.152Z,101480.44
2023-05-25T16:38:01.351Z,101487.00
2023-05-25T16:40:31.646Z,101480.81
2023-05-25T16:43:00.891Z,101485.44
2023-05-25T16:45:30.194Z,101494.69
2023-05-25T16:47:59.009Z,101490.97
2023-05-25T16:50:28.279Z,101492.03
2023-05-25T16:52:57.254Z,101495.41
2023-05-25T16:55:29.851Z,101497.38
2023-05-25T16:57:58.865Z,101500.38
2023-05-25T17:00:28.091Z,101493.63
2023-05-25T17:02:57.258Z,101496.88
2023-05-25T17:05:26.644Z,101496.81
2023-05-25T17:07:55.564Z,101494.88
2023-05-25T17:10:24.747Z,101490.13
2023-05-25T17:12:55.310Z,101500.88
2023-05-25T17:15:24.872Z,101491.25
2023-05-25T17:17:53.941Z,101507.06
2023-05-25T17:20:23.291Z,101503.47
2023-05-25T17:22:53.085Z,101502.09
2023-05-25T17:25:22.767Z,101494.06
2023-05-25T17:27:51.655Z,101489.75
2023-05-25T17:30:22.146Z,101497.06
2023-05-25T17:32:51.571Z,101492.00
2023-05-25T17:35:20.725Z,101496.38
2023-05-25T17:37:49.613Z,101493.97
2023-05-25T17:40:18.874Z,101490.03
2023-05-25T17:42:48.011Z,101482.75
2023-05-25T17:45:17.353Z,101494.16
2023-05-25T17:47:47.691Z,101498.25
2023-05-25T17:50:17.052Z,101511.63
2023-05-25T17:52:47.879Z,101504.19
2023-05-25T17:55:17.036Z,101511.47
2023-05-25T17:57:46.153Z,101510.38
2023-05-25T18:00:15.942Z,101508.66
2023-05-25T18:02:47.663Z,101508.38
2023-05-25T18:05:17.279Z,101513.97
2023-05-25T18:07:46.823Z,101512.91
2023-05-25T18:10:16.347Z,101509.25
2023-05-25T18:12:46.288Z,101504.09
2023-05-25T18:15:15.959Z,101507.81
2023-05-25T18:17:45.160Z,101519.34
2023-05-25T18:20:17.431Z,101523.91
2023-05-25T18:22:46.613Z,101529.72
2023-05-25T18:25:15.776Z,101536.38
2023-05-25T18:27:44.809Z,101537.44
2023-05-25T18:30:14.511Z,101530.19
2023-05-25T18:32:43.685Z,101531.69
2023-05-25T18:35:13.235Z,101540.47
2023-05-25T18:37:44.200Z,101543.69
2023-05-25T18:40:13.785Z,101537.25
2023-05-25T18:42:42.897Z,101545.16
2023-05-25T18:45:12.305Z,101544.91
2023-05-25T18:47:41.507Z,101542.97
2023-05-25T18:50:11.928Z,101544.22
2023-05-25T18:52:41.396Z,101545.50
2023-05-25T18:55:12.291Z,101547.94
2023-05-25T18:57:41.505Z,101544.56
2023-05-25T19:00:11.694Z,101552.31
2023-05-25T19:02:41.143Z,101558.00
2023-05-25T19:05:12.841Z,101552.00
2023-05-25T19:07:58.518Z,101562.19
2023-05-25T19:10:30.140Z,101554.59
2023-05-25T19:12:59.343Z,101555.56
2023-05-25T19:15:28.510Z,101554.72
2023-05-25T19:17:58.317Z,101559.66
2023-05-25T19:20:28.157Z,101563.88
2023-05-25T19:22:57.448Z,101554.84
2023-05-25T19:25:26.850Z,101554.41
2023-05-25T19:27:58.714Z,101564.63
2023-05-25T19:30:29.919Z,101564.78
2023-05-25T19:32:59.711Z,101561.81
2023-05-25T19:35:29.105Z,101560.16
2023-05-25T19:37:59.766Z,101565.16
2023-05-25T19:40:30.088Z,101576.63
2023-05-25T19:43:01.448Z,101569.50
2023-05-25T19:45:31.119Z,101574.91
2023-05-25T19:48:01.677Z,101572.41
2023-05-25T19:50:31.774Z,101574.84
2023-05-25T19:53:01.202Z,101578.56
2023-05-25T19:55:31.053Z,101565.53
2023-05-25T19:58:01.580Z,101566.84
2023-05-25T20:00:30.844Z,101560.06
2023-05-25T20:03:00.758Z,101570.53
2023-05-25T20:05:30.805Z,101570.53
2023-05-25T20:08:01.320Z,101569.84
2023-05-25T20:10:32.852Z,101577.28
2023-05-25T20:13:03.756Z,101574.88
2023-05-25T20:15:33.380Z,101575.91
2023-05-25T20:18:03.185Z,101583.13
2023-05-25T20:20:32.591Z,101575.34
2023-05-25T20:23:02.068Z,101571.78
2023-05-25T20:25:32.091Z,101569.34
2023-05-25T20:28:01.132Z,101575.78
2023-05-25T20:30:32.464Z,101565.50
2023-05-25T20:33:01.657Z,101578.28
2023-05-25T20:35:31.172Z,101577.69
2023-05-25T20:38:00.420Z,101580.25
2023-05-25T20:40:32.159Z,101581.28
2023-05-25T20:43:01.810Z,101584.78
2023-05-25T20:45:33.617Z,101582.69
2023-05-25T20:48:05.716Z,101572.59
2023-05-25T20:50:36.132Z,101568.09
2023-05-25T20:53:05.269Z,101577.31
2023-05-25T20:55:35.501Z,101578.50
2023-05-25T20:58:04.364Z,101574.59
2023-05-25T21:00:35.294Z,101568.41
2023-05-25T21:03:04.985Z,101573.19
2023-05-25T21:05:34.434Z,101568.06
2023-05-25T21:08:04.125Z,101567.94
2023-05-25T21:10:33.603Z,101564.69
2023-05-25T21:13:02.440Z,101562.00
2023-05-25T21:15:31.770Z,101562.22
2023-05-25T21:18:03.643Z,101570.31
2023-05-25T21:20:33.077Z,101564.53
2023-05-25T21:23:02.652Z,101565.81
2023-05-25T21:25:32.955Z,101563.69
2023-05-25T21:28:01.896Z,101563.56
2023-05-25T21:30:31.211Z,101556.47
2023-05-25T21:33:00.485Z,101558.56
2023-05-25T21:35:31.681Z,101556.75
2023-05-25T21:38:00.590Z,101557.88
2023-05-25T21:40:29.762Z,101559.84
2023-05-25T21:42:58.712Z,101558.16
2023-05-25T21:45:27.813Z,101556.31
2023-05-25T21:47:56.948Z,101565.63
2023-05-25T21:50:28.370Z,101569.06
2023-05-25T21:52:58.830Z,101563.78
2023-05-25T21:55:27.995Z,101563.16
2023-05-25T21:57:56.781Z,101570.28
2023-05-25T22:00:26.284Z,101571.44
2023-05-25T22:02:55.302Z,101566.72
2023-05-25T22:05:24.728Z,101565.19
2023-05-25T22:07:55.662Z,101573.66
2023-05-25T22:10:26.468Z,101570.00
2023-05-25T22:12:56.313Z,101557.63
2023-05-25T22:15:26.167Z,101563.88
2023-05-25T22:17:56.043Z,101565.69
2023-05-25T22:20:25.429Z,101580.09
2023-05-25T22:22:54.551Z,101572.13
2023-05-25T22:25:23.727Z,101569.84
2023-05-25T22:27:53.936Z,101565.41
2023-05-25T22:30:23.048Z,101560.97
2023-05-25T22:32:52.048Z,101567.31
2023-05-25T22:35:21.247Z,101563.06
2023-05-25T22:37:50.209Z,101560.47
2023-05-25T22:40:19.464Z,101562.19
2023-05-25T22:42:50.286Z,101564.38
2023-05-25T22:45:21.460Z,101562.66
2023-05-25T22:47:50.482Z,101558.09
2023-05-25T22:50:19.614Z,101556.50
2023-05-25T22:52:48.649Z,101555.59
2023-05-25T22:55:17.750Z,101550.34
2023-05-25T22:57:46.728Z,101554.16
2023-05-25T23:00:15.949Z,101550.91
2023-05-25T23:02:46.411Z,101544.03
2023-05-25T23:05:15.666Z,101546.50
2023-05-25T23:07:45.719Z,101543.16
2023-05-25T23:10:14.870Z,101553.09
2023-05-25T23:12:43.726Z,101538.88
2023-05-25T23:15:12.971Z,101545.25
2023-05-25T23:17:41.821Z,101535.72
2023-05-25T23:20:13.225Z,101535.06
2023-05-25T23:22:43.235Z,101532.38
2023-05-25T23:25:12.451Z,101526.28
2023-05-25T23:27:41.838Z,101535.44
2023-05-25T23:30:11.328Z,101537.22
2023-05-25T23:32:40.291Z,101530.97
2023-05-25T23:35:10.509Z,101533.56
2023-05-25T23:37:41.303Z,101537.28
2023-05-25T23:40:11.107Z,101531.13
2023-05-25T23:42:40.611Z,101545.38
2023-05-25T23:45:10.868Z,101535.59
2023-05-25T23:47:39.822Z,101537.75
2023-05-25T23:50:09.200Z,101531.63
2023-05-25T23:52:38.144Z,101542.34
2023-05-25T23:55:09.528Z,101535.28
2023-05-25T23:57:38.648Z,101545.94
